createdAt,value
2023-03-16T00:01:57.925Z,95423.00
2023-03-16T01:00:15.151Z,95423.00
2023-03-16T01:04:15.223Z,95407.00
2023-03-16T07:04:22.071Z,95439.00
2023-03-16T07:48:25.164Z,95423.00
2023-03-16T12:16:27.559Z,95172.00
2023-03-16T12:20:26.056Z,95162.00
2023-03-16T12:24:25.736Z,95158.00
2023-03-16T12:28:26.051Z,95154.00
2023-03-16T12:32:26.171Z,95149.00
2023-03-16T12:40:25.801Z,95135.00
2023-03-16T13:16:26.050Z,95101.00
2023-03-16T13:24:25.962Z,95092.00
2023-03-16T13:32:26.623Z,95082.00
2023-03-16T13:36:26.257Z,95082.00
2023-03-16T15:32:29.200Z,95043.00
2023-03-16T15:36:28.936Z,95047.00
2023-03-16T15:40:29.356Z,95043.00
2023-03-16T16:24:29.936Z,95043.00
2023-03-16T16:28:30.133Z,95051.00
2023-03-16T16:32:30.163Z,95049.00
2023-03-16T16:36:30.143Z,95053.00
2023-03-16T16:40:30.237Z,95047.00
2023-03-16T16:44:33.451Z,95049.00
2023-03-16T16:48:30.315Z,95051.00
2023-03-16T16:52:30.334Z,95051.00
2023-03-16T16:56:30.379Z,95054.00
2023-03-16T17:00:30.648Z,95056.00
2023-03-16T17:04:30.405Z,95056.00
2023-03-16T22:40:39.597Z,95219.00
2023-03-16T22:44:39.731Z,95219.00
2023-03-16T22:48:39.897Z,95217.00
2023-03-16T22:52:40.018Z,95221.00
2023-03-16T22:56:40.146Z,95217.00
2023-03-16T23:00:40.377Z,95229.00
2023-03-16T23:04:40.491Z,95231.00
2023-03-16T23:08:40.552Z,95227.00
2023-03-16T23:12:40.683Z,95221.00
2023-03-16T23:16:40.869Z,95215.00
2023-03-16T23:20:40.992Z,95211.00
2023-03-16T23:24:41.082Z,95213.00
2023-03-16T23:28:41.212Z,95209.00
2023-03-16T23:32:41.409Z,95211.00
2023-03-16T23:36:41.512Z,95209.00
2023-03-16T23:40:41.633Z,95209.00
2023-03-16T23:44:41.755Z,95213.00
2023-03-16T23:48:41.926Z,95213.00
2023-03-16T23:52:42.080Z,95219.00
2023-03-16T23:56:42.190Z,95213.00
